sensor_id;sensor_type;location;lat;lon;timestamp;temperature;humidity
52044;DHT22;38053;53.100;6.078;2022-12-20T00:00:02;9.10;99.90
52044;DHT22;38053;53.100;6.078;2022-12-20T00:02:27;9.20;99.90
52044;DHT22;38053;53.100;6.078;2022-12-20T00:04:53;9.20;99.90
52044;DHT22;38053;53.100;6.078;2022-12-20T00:07:19;9.10;99.90
52044;DHT22;38053;53.100;6.078;2022-12-20T00:09:44;9.10;99.90
52044;DHT22;38053;53.100;6.078;2022-12-20T00:12:10;9.10;99.90
52044;DHT22;38053;53.100;6.078;2022-12-20T00:14:36;9.10;99.90
52044;DHT22;38053;53.100;6.078;2022-12-20T00:17:01;9.10;99.90
52044;DHT22;38053;53.100;6.078;2022-12-20T00:19:27;9.10;99.90
52044;DHT22;38053;53.100;6.078;2022-12-20T00:21:53;9.10;99.90
52044;DHT22;38053;53.100;6.078;2022-12-20T00:24:18;9.10;99.90
52044;DHT22;38053;53.100;6.078;2022-12-20T00:26:44;9.10;99.90
52044;DHT22;38053;53.100;6.078;2022-12-20T00:29:10;9.20;99.90
52044;DHT22;38053;53.100;6.078;2022-12-20T00:31:35;9.20;99.90
52044;DHT22;38053;53.100;6.078;2022-12-20T00:34:01;9.20;99.90
52044;DHT22;38053;53.100;6.078;2022-12-20T00:36:29;9.20;99.90
52044;DHT22;38053;53.100;6.078;2022-12-20T00:38:57;9.20;99.90
52044;DHT22;38053;53.100;6.078;2022-12-20T00:41:25;9.20;99.90
52044;DHT22;38053;53.100;6.078;2022-12-20T00:43:52;9.20;99.90
52044;DHT22;38053;53.100;6.078;2022-12-20T00:46:19;9.30;99.90
52044;DHT22;38053;53.100;6.078;2022-12-20T00:48:45;9.30;99.90
52044;DHT22;38053;53.100;6.078;2022-12-20T00:51:13;9.30;99.90
52044;DHT22;38053;53.100;6.078;2022-12-20T00:53:41;9.30;99.90
52044;DHT22;38053;53.100;6.078;2022-12-20T00:56:07;9.40;99.90
52044;DHT22;38053;53.100;6.078;2022-12-20T00:58:35;9.30;99.90
52044;DHT22;38053;53.100;6.078;2022-12-20T01:01:01;9.30;99.90
52044;DHT22;38053;53.100;6.078;2022-12-20T01:03:27;9.40;99.90
52044;DHT22;38053;53.100;6.078;2022-12-20T01:05:55;9.40;99.90
52044;DHT22;38053;53.100;6.078;2022-12-20T01:08:22;9.40;99.90
52044;DHT22;38053;53.100;6.078;2022-12-20T01:11:19;9.40;99.90
52044;DHT22;38053;53.100;6.078;2022-12-20T01:13:47;9.40;99.90
52044;DHT22;38053;53.100;6.078;2022-12-20T01:16:16;9.40;99.90
52044;DHT22;38053;53.100;6.078;2022-12-20T01:18:42;9.40;99.90
52044;DHT22;38053;53.100;6.078;2022-12-20T01:21:11;9.40;99.90
52044;DHT22;38053;53.100;6.078;2022-12-20T01:23:37;9.40;99.90
52044;DHT22;38053;53.100;6.078;2022-12-20T01:26:06;9.40;99.90
52044;DHT22;38053;53.100;6.078;2022-12-20T01:28:34;9.50;99.90
52044;DHT22;38053;53.100;6.078;2022-12-20T01:31:00;9.50;99.90
52044;DHT22;38053;53.100;6.078;2022-12-20T01:33:28;9.50;99.90
52044;DHT22;38053;53.100;6.078;2022-12-20T01:35:55;9.50;99.90
52044;DHT22;38053;53.100;6.078;2022-12-20T01:38:22;9.50;99.90
52044;DHT22;38053;53.100;6.078;2022-12-20T01:40:48;9.50;99.90
52044;DHT22;38053;53.100;6.078;2022-12-20T01:43:14;9.50;99.90
52044;DHT22;38053;53.100;6.078;2022-12-20T01:45:42;9.50;99.90
52044;DHT22;38053;53.100;6.078;2022-12-20T01:48:08;9.50;99.90
52044;DHT22;38053;53.100;6.078;2022-12-20T01:50:36;9.50;99.90
52044;DHT22;38053;53.100;6.078;2022-12-20T01:53:02;9.50;99.90
52044;DHT22;38053;53.100;6.078;2022-12-20T01:55:31;9.50;99.90
52044;DHT22;38053;53.100;6.078;2022-12-20T01:58:09;9.60;99.90
52044;DHT22;38053;53.100;6.078;2022-12-20T02:00:36;9.50;99.90
52044;DHT22;38053;53.100;6.078;2022-12-20T02:03:06;9.50;99.90
52044;DHT22;38053;53.100;6.078;2022-12-20T02:05:37;9.60;99.90
52044;DHT22;38053;53.100;6.078;2022-12-20T02:08:04;9.50;99.90
52044;DHT22;38053;53.100;6.078;2022-12-20T02:16:23;9.50;99.90
52044;DHT22;38053;53.100;6.078;2022-12-20T02:30:06;9.60;99.90
52044;DHT22;38053;53.100;6.078;2022-12-20T02:32:53;9.60;99.90
52044;DHT22;38053;53.100;6.078;2022-12-20T02:35:24;9.60;99.90
52044;DHT22;38053;53.100;6.078;2022-12-20T02:37:57;9.60;99.90
52044;DHT22;38053;53.100;6.078;2022-12-20T02:40:27;9.60;99.90
52044;DHT22;38053;53.100;6.078;2022-12-20T02:42:58;9.60;99.90
52044;DHT22;38053;53.100;6.078;2022-12-20T02:45:32;9.50;99.90
52044;DHT22;38053;53.100;6.078;2022-12-20T02:48:08;9.50;99.90
52044;DHT22;38053;53.100;6.078;2022-12-20T02:50:45;9.50;99.90
52044;DHT22;38053;53.100;6.078;2022-12-20T02:53:12;9.40;99.90
52044;DHT22;38053;53.100;6.078;2022-12-20T02:58:08;9.30;99.90
52044;DHT22;38053;53.100;6.078;2022-12-20T03:00:40;9.30;99.90
52044;DHT22;38053;53.100;6.078;2022-12-20T03:03:08;9.30;99.90
52044;DHT22;38053;53.100;6.078;2022-12-20T03:05:54;9.20;99.90
52044;DHT22;38053;53.100;6.078;2022-12-20T03:08:21;9.20;99.90
52044;DHT22;38053;53.100;6.078;2022-12-20T03:10:48;9.20;99.90
52044;DHT22;38053;53.100;6.078;2022-12-20T03:13:14;9.20;99.90
52044;DHT22;38053;53.100;6.078;2022-12-20T03:15:39;9.20;99.90
52044;DHT22;38053;53.100;6.078;2022-12-20T03:18:06;9.20;99.90
52044;DHT22;38053;53.100;6.078;2022-12-20T03:20:32;9.20;99.90
52044;DHT22;38053;53.100;6.078;2022-12-20T03:22:57;9.30;99.90
52044;DHT22;38053;53.100;6.078;2022-12-20T03:25:23;9.30;99.90
52044;DHT22;38053;53.100;6.078;2022-12-20T03:27:49;9.30;99.90
52044;DHT22;38053;53.100;6.078;2022-12-20T03:30:14;9.30;99.90
52044;DHT22;38053;53.100;6.078;2022-12-20T03:32:40;9.30;99.90
52044;DHT22;38053;53.100;6.078;2022-12-20T03:35:06;9.30;99.90
52044;DHT22;38053;53.100;6.078;2022-12-20T03:37:32;9.30;99.90
52044;DHT22;38053;53.100;6.078;2022-12-20T03:39:57;9.30;99.90
52044;DHT22;38053;53.100;6.078;2022-12-20T03:42:23;9.30;99.90
52044;DHT22;38053;53.100;6.078;2022-12-20T03:44:48;9.30;99.90
52044;DHT22;38053;53.100;6.078;2022-12-20T03:47:14;9.30;99.90
52044;DHT22;38053;53.100;6.078;2022-12-20T03:49:40;9.30;99.90
52044;DHT22;38053;53.100;6.078;2022-12-20T03:52:06;9.20;99.90
52044;DHT22;38053;53.100;6.078;2022-12-20T03:54:31;9.30;99.90
52044;DHT22;38053;53.100;6.078;2022-12-20T03:56:57;9.30;99.90
52044;DHT22;38053;53.100;6.078;2022-12-20T03:59:23;9.30;99.90
52044;DHT22;38053;53.100;6.078;2022-12-20T04:01:49;9.30;99.90
52044;DHT22;38053;53.100;6.078;2022-12-20T04:04:14;9.30;99.90
52044;DHT22;38053;53.100;6.078;2022-12-20T04:06:41;9.30;99.90
52044;DHT22;38053;53.100;6.078;2022-12-20T04:09:06;9.30;99.90
52044;DHT22;38053;53.100;6.078;2022-12-20T04:11:32;9.30;99.90
52044;DHT22;38053;53.100;6.078;2022-12-20T04:13:58;9.30;99.90
52044;DHT22;38053;53.100;6.078;2022-12-20T04:16:27;9.30;99.90
52044;DHT22;38053;53.100;6.078;2022-12-20T04:18:53;9.30;99.90
52044;DHT22;38053;53.100;6.078;2022-12-20T04:21:24;9.30;99.90
52044;DHT22;38053;53.100;6.078;2022-12-20T04:23:50;9.30;99.90
52044;DHT22;38053;53.100;6.078;2022-12-20T04:26:16;9.30;99.90
52044;DHT22;38053;53.100;6.078;2022-12-20T04:28:42;9.30;99.90
52044;DHT22;38053;53.100;6.078;2022-12-20T04:31:08;9.30;99.90
52044;DHT22;38053;53.100;6.078;2022-12-20T04:33:34;9.30;99.90
52044;DHT22;38053;53.100;6.078;2022-12-20T04:35:59;9.40;99.90
52044;DHT22;38053;53.100;6.078;2022-12-20T04:38:25;9.40;99.90
52044;DHT22;38053;53.100;6.078;2022-12-20T04:40:52;9.40;99.90
52044;DHT22;38053;53.100;6.078;2022-12-20T04:43:19;9.50;99.90
52044;DHT22;38053;53.100;6.078;2022-12-20T04:45:47;9.50;99.90
52044;DHT22;38053;53.100;6.078;2022-12-20T04:48:13;9.50;99.90
52044;DHT22;38053;53.100;6.078;2022-12-20T04:50:39;9.50;99.90
52044;DHT22;38053;53.100;6.078;2022-12-20T04:53:05;9.50;99.90
52044;DHT22;38053;53.100;6.078;2022-12-20T04:55:50;9.60;99.90
52044;DHT22;38053;53.100;6.078;2022-12-20T04:58:16;9.60;99.90
52044;DHT22;38053;53.100;6.078;2022-12-20T05:00:41;9.60;99.90
52044;DHT22;38053;53.100;6.078;2022-12-20T05:03:07;9.60;99.90
52044;DHT22;38053;53.100;6.078;2022-12-20T05:05:33;9.70;99.90
52044;DHT22;38053;53.100;6.078;2022-12-20T05:07:58;9.60;99.90
52044;DHT22;38053;53.100;6.078;2022-12-20T05:10:24;9.60;99.90
52044;DHT22;38053;53.100;6.078;2022-12-20T05:12:50;9.70;99.90
52044;DHT22;38053;53.100;6.078;2022-12-20T05:15:16;9.70;99.90
52044;DHT22;38053;53.100;6.078;2022-12-20T05:17:41;9.70;99.90
52044;DHT22;38053;53.100;6.078;2022-12-20T05:20:07;9.70;99.90
52044;DHT22;38053;53.100;6.078;2022-12-20T05:22:33;9.70;99.90
52044;DHT22;38053;53.100;6.078;2022-12-20T05:25:17;9.70;99.90
52044;DHT22;38053;53.100;6.078;2022-12-20T05:28:02;9.70;99.90
52044;DHT22;38053;53.100;6.078;2022-12-20T05:30:28;9.80;99.90
52044;DHT22;38053;53.100;6.078;2022-12-20T05:32:54;9.80;99.90
52044;DHT22;38053;53.100;6.078;2022-12-20T05:35:20;9.80;99.90
52044;DHT22;38053;53.100;6.078;2022-12-20T05:37:45;9.80;99.90
52044;DHT22;38053;53.100;6.078;2022-12-20T05:40:11;9.80;99.90
52044;DHT22;38053;53.100;6.078;2022-12-20T05:42:37;9.80;99.90
52044;DHT22;38053;53.100;6.078;2022-12-20T05:45:04;9.80;99.90
52044;DHT22;38053;53.100;6.078;2022-12-20T05:47:30;9.80;99.90
52044;DHT22;38053;53.100;6.078;2022-12-20T05:50:02;9.80;99.90
52044;DHT22;38053;53.100;6.078;2022-12-20T05:52:28;9.80;99.90
52044;DHT22;38053;53.100;6.078;2022-12-20T05:54:54;9.80;99.90
52044;DHT22;38053;53.100;6.078;2022-12-20T05:57:20;9.80;99.90
52044;DHT22;38053;53.100;6.078;2022-12-20T05:59:46;9.80;99.90
52044;DHT22;38053;53.100;6.078;2022-12-20T06:02:12;9.80;99.90
52044;DHT22;38053;53.100;6.078;2022-12-20T06:04:41;9.80;99.90
52044;DHT22;38053;53.100;6.078;2022-12-20T06:07:06;9.90;99.90
52044;DHT22;38053;53.100;6.078;2022-12-20T06:09:32;9.90;99.90
52044;DHT22;38053;53.100;6.078;2022-12-20T06:11:58;9.90;99.90
52044;DHT22;38053;53.100;6.078;2022-12-20T06:14:24;10.00;99.90
52044;DHT22;38053;53.100;6.078;2022-12-20T06:16:50;10.00;99.90
52044;DHT22;38053;53.100;6.078;2022-12-20T06:19:16;10.00;99.90
52044;DHT22;38053;53.100;6.078;2022-12-20T06:21:41;10.00;99.90
52044;DHT22;38053;53.100;6.078;2022-12-20T06:24:07;10.00;99.90
52044;DHT22;38053;53.100;6.078;2022-12-20T06:26:33;10.10;99.90
52044;DHT22;38053;53.100;6.078;2022-12-20T06:29:03;10.10;99.90
52044;DHT22;38053;53.100;6.078;2022-12-20T06:31:32;10.10;99.90
52044;DHT22;38053;53.100;6.078;2022-12-20T06:33:57;10.10;99.90
52044;DHT22;38053;53.100;6.078;2022-12-20T06:36:23;10.10;99.90
52044;DHT22;38053;53.100;6.078;2022-12-20T06:38:49;10.10;99.90
52044;DHT22;38053;53.100;6.078;2022-12-20T06:41:15;10.10;99.90
52044;DHT22;38053;53.100;6.078;2022-12-20T06:43:41;10.10;99.90
52044;DHT22;38053;53.100;6.078;2022-12-20T06:46:06;10.00;99.90
52044;DHT22;38053;53.100;6.078;2022-12-20T06:48:32;10.00;99.90
52044;DHT22;38053;53.100;6.078;2022-12-20T06:50:58;10.00;99.90
52044;DHT22;38053;53.100;6.078;2022-12-20T06:53:23;9.90;99.90
52044;DHT22;38053;53.100;6.078;2022-12-20T06:55:49;9.90;99.90
52044;DHT22;38053;53.100;6.078;2022-12-20T06:58:16;9.90;99.90
52044;DHT22;38053;53.100;6.078;2022-12-20T07:00:42;9.80;99.90
52044;DHT22;38053;53.100;6.078;2022-12-20T07:03:08;9.90;99.90
52044;DHT22;38053;53.100;6.078;2022-12-20T07:05:33;9.80;99.90
52044;DHT22;38053;53.100;6.078;2022-12-20T07:07:59;9.80;99.90
52044;DHT22;38053;53.100;6.078;2022-12-20T07:10:27;9.90;99.90
52044;DHT22;38053;53.100;6.078;2022-12-20T07:12:52;9.80;99.90
52044;DHT22;38053;53.100;6.078;2022-12-20T07:15:18;9.80;99.90
52044;DHT22;38053;53.100;6.078;2022-12-20T07:17:46;9.80;99.90
52044;DHT22;38053;53.100;6.078;2022-12-20T07:20:12;9.80;99.90
52044;DHT22;38053;53.100;6.078;2022-12-20T07:22:38;9.80;99.90
52044;DHT22;38053;53.100;6.078;2022-12-20T07:25:04;9.80;99.90
52044;DHT22;38053;53.100;6.078;2022-12-20T07:27:29;9.90;99.90
52044;DHT22;38053;53.100;6.078;2022-12-20T07:29:55;9.90;99.90
52044;DHT22;38053;53.100;6.078;2022-12-20T07:32:21;9.90;99.90
52044;DHT22;38053;53.100;6.078;2022-12-20T07:34:47;9.90;99.90
52044;DHT22;38053;53.100;6.078;2022-12-20T07:37:12;9.90;99.90
52044;DHT22;38053;53.100;6.078;2022-12-20T07:39:38;9.90;99.90
52044;DHT22;38053;53.100;6.078;2022-12-20T07:42:04;9.90;99.90
52044;DHT22;38053;53.100;6.078;2022-12-20T07:44:29;9.90;99.90
52044;DHT22;38053;53.100;6.078;2022-12-20T07:46:55;9.90;99.90
52044;DHT22;38053;53.100;6.078;2022-12-20T07:49:21;9.90;99.90
52044;DHT22;38053;53.100;6.078;2022-12-20T07:51:50;9.90;99.90
52044;DHT22;38053;53.100;6.078;2022-12-20T07:54:44;9.90;99.90
52044;DHT22;38053;53.100;6.078;2022-12-20T07:57:16;10.00;99.90
52044;DHT22;38053;53.100;6.078;2022-12-20T07:59:47;10.00;99.90
52044;DHT22;38053;53.100;6.078;2022-12-20T08:02:16;10.00;99.90
52044;DHT22;38053;53.100;6.078;2022-12-20T08:04:44;10.00;99.90
52044;DHT22;38053;53.100;6.078;2022-12-20T08:07:09;10.00;99.90
52044;DHT22;38053;53.100;6.078;2022-12-20T08:09:39;10.00;99.90
52044;DHT22;38053;53.100;6.078;2022-12-20T08:12:07;10.10;99.90
52044;DHT22;38053;53.100;6.078;2022-12-20T08:14:35;10.10;99.90
52044;DHT22;38053;53.100;6.078;2022-12-20T08:17:01;10.10;99.90
52044;DHT22;38053;53.100;6.078;2022-12-20T08:19:26;10.10;99.90
52044;DHT22;38053;53.100;6.078;2022-12-20T08:21:52;10.10;99.90
52044;DHT22;38053;53.100;6.078;2022-12-20T08:24:18;10.10;99.90
52044;DHT22;38053;53.100;6.078;2022-12-20T08:26:44;10.10;99.90
52044;DHT22;38053;53.100;6.078;2022-12-20T08:29:10;10.10;99.90
52044;DHT22;38053;53.100;6.078;2022-12-20T08:31:39;10.10;99.90
52044;DHT22;38053;53.100;6.078;2022-12-20T08:34:06;10.10;99.90
52044;DHT22;38053;53.100;6.078;2022-12-20T08:36:32;10.20;99.90
52044;DHT22;38053;53.100;6.078;2022-12-20T08:39:04;10.20;99.90
52044;DHT22;38053;53.100;6.078;2022-12-20T08:41:32;10.20;99.90
52044;DHT22;38053;53.100;6.078;2022-12-20T08:43:58;10.20;99.90
52044;DHT22;38053;53.100;6.078;2022-12-20T08:46:23;10.20;99.90
52044;DHT22;38053;53.100;6.078;2022-12-20T08:48:49;10.20;99.90
52044;DHT22;38053;53.100;6.078;2022-12-20T08:51:15;10.30;99.90
52044;DHT22;38053;53.100;6.078;2022-12-20T08:53:40;10.20;99.90
52044;DHT22;38053;53.100;6.078;2022-12-20T08:56:08;10.30;99.90
52044;DHT22;38053;53.100;6.078;2022-12-20T08:58:36;10.30;99.90
52044;DHT22;38053;53.100;6.078;2022-12-20T09:01:05;10.30;99.90
52044;DHT22;38053;53.100;6.078;2022-12-20T09:03:31;10.30;99.90
52044;DHT22;38053;53.100;6.078;2022-12-20T09:05:58;10.30;99.90
52044;DHT22;38053;53.100;6.078;2022-12-20T09:08:25;10.30;99.90
52044;DHT22;38053;53.100;6.078;2022-12-20T09:10:51;10.40;99.90
52044;DHT22;38053;53.100;6.078;2022-12-20T09:13:17;10.40;99.90
52044;DHT22;38053;53.100;6.078;2022-12-20T09:15:43;10.40;99.90
52044;DHT22;38053;53.100;6.078;2022-12-20T09:18:10;10.40;99.90
52044;DHT22;38053;53.100;6.078;2022-12-20T09:20:41;10.40;99.90
52044;DHT22;38053;53.100;6.078;2022-12-20T09:23:08;10.40;99.90
52044;DHT22;38053;53.100;6.078;2022-12-20T09:25:34;10.40;99.90
52044;DHT22;38053;53.100;6.078;2022-12-20T09:28:02;10.40;99.90
52044;DHT22;38053;53.100;6.078;2022-12-20T09:30:28;10.50;99.90
52044;DHT22;38053;53.100;6.078;2022-12-20T09:32:54;10.50;99.90
52044;DHT22;38053;53.100;6.078;2022-12-20T09:35:21;10.50;99.90
52044;DHT22;38053;53.100;6.078;2022-12-20T09:37:47;10.50;99.90
52044;DHT22;38053;53.100;6.078;2022-12-20T09:40:18;10.60;99.90
52044;DHT22;38053;53.100;6.078;2022-12-20T09:42:47;10.60;99.90
52044;DHT22;38053;53.100;6.078;2022-12-20T09:45:23;10.60;99.90
52044;DHT22;38053;53.100;6.078;2022-12-20T09:47:50;10.60;99.90
52044;DHT22;38053;53.100;6.078;2022-12-20T09:50:18;10.60;99.90
52044;DHT22;38053;53.100;6.078;2022-12-20T09:52:46;10.60;99.90
52044;DHT22;38053;53.100;6.078;2022-12-20T10:00:16;10.50;99.90
52044;DHT22;38053;53.100;6.078;2022-12-20T10:02:42;10.50;99.90
52044;DHT22;38053;53.100;6.078;2022-12-20T10:05:21;10.50;99.90
52044;DHT22;38053;53.100;6.078;2022-12-20T10:16:43;10.50;99.90
52044;DHT22;38053;53.100;6.078;2022-12-20T10:24:30;10.50;99.90
52044;DHT22;38053;53.100;6.078;2022-12-20T10:27:17;10.50;99.90
52044;DHT22;38053;53.100;6.078;2022-12-20T10:29:44;10.40;99.90
52044;DHT22;38053;53.100;6.078;2022-12-20T10:32:20;10.50;99.90
52044;DHT22;38053;53.100;6.078;2022-12-20T10:35:22;10.50;99.90
52044;DHT22;38053;53.100;6.078;2022-12-20T10:38:06;10.50;99.90
52044;DHT22;38053;53.100;6.078;2022-12-20T10:41:23;10.50;99.90
52044;DHT22;38053;53.100;6.078;2022-12-20T10:43:23;10.50;99.90
52044;DHT22;38053;53.100;6.078;2022-12-20T10:45:59;10.50;99.90
52044;DHT22;38053;53.100;6.078;2022-12-20T10:48:31;10.50;99.90
52044;DHT22;38053;53.100;6.078;2022-12-20T10:53:30;10.40;99.90
52044;DHT22;38053;53.100;6.078;2022-12-20T10:56:23;10.40;99.90
52044;DHT22;38053;53.100;6.078;2022-12-20T11:01:27;10.40;99.90
52044;DHT22;38053;53.100;6.078;2022-12-20T11:06:28;10.40;99.90
52044;DHT22;38053;53.100;6.078;2022-12-20T11:09:17;10.40;99.90
52044;DHT22;38053;53.100;6.078;2022-12-20T11:12:08;10.40;99.90
52044;DHT22;38053;53.100;6.078;2022-12-20T11:14:33;10.40;99.90
52044;DHT22;38053;53.100;6.078;2022-12-20T11:17:04;10.40;99.90
52044;DHT22;38053;53.100;6.078;2022-12-20T11:19:53;10.30;99.90
52044;DHT22;38053;53.100;6.078;2022-12-20T11:30:47;10.30;99.90
52044;DHT22;38053;53.100;6.078;2022-12-20T11:40:15;10.30;99.90
52044;DHT22;38053;53.100;6.078;2022-12-20T11:42:27;10.20;99.90
52044;DHT22;38053;53.100;6.078;2022-12-20T11:47:53;10.30;99.90
52044;DHT22;38053;53.100;6.078;2022-12-20T11:51:42;10.20;99.90
52044;DHT22;38053;53.100;6.078;2022-12-20T11:53:37;10.20;99.90
52044;DHT22;38053;53.100;6.078;2022-12-20T11:56:19;10.30;99.90
52044;DHT22;38053;53.100;6.078;2022-12-20T12:01:51;10.20;99.90
52044;DHT22;38053;53.100;6.078;2022-12-20T12:04:25;10.20;99.90
52044;DHT22;38053;53.100;6.078;2022-12-20T12:07:12;10.20;99.90
52044;DHT22;38053;53.100;6.078;2022-12-20T12:10:03;10.20;99.90
52044;DHT22;38053;53.100;6.078;2022-12-20T12:12:33;10.20;99.90
52044;DHT22;38053;53.100;6.078;2022-12-20T12:15:11;10.10;99.90
52044;DHT22;38053;53.100;6.078;2022-12-20T12:20:55;10.10;99.90
52044;DHT22;38053;53.100;6.078;2022-12-20T12:23:31;10.00;99.90
52044;DHT22;38053;53.100;6.078;2022-12-20T12:26:10;10.00;99.90
52044;DHT22;38053;53.100;6.078;2022-12-20T12:28:36;10.00;99.90
52044;DHT22;38053;53.100;6.078;2022-12-20T12:31:27;10.00;99.90
52044;DHT22;38053;53.100;6.078;2022-12-20T12:40:02;10.00;99.90
52044;DHT22;38053;53.100;6.078;2022-12-20T12:42:58;10.00;99.90
52044;DHT22;38053;53.100;6.078;2022-12-20T12:45:31;10.00;99.90
52044;DHT22;38053;53.100;6.078;2022-12-20T12:48:16;10.00;99.90
52044;DHT22;38053;53.100;6.078;2022-12-20T12:50:49;10.00;99.90
52044;DHT22;38053;53.100;6.078;2022-12-20T12:55:48;10.10;99.90
52044;DHT22;38053;53.100;6.078;2022-12-20T13:00:54;10.10;99.90
52044;DHT22;38053;53.100;6.078;2022-12-20T13:09:16;10.20;99.90
52044;DHT22;38053;53.100;6.078;2022-12-20T13:11:42;10.20;99.90
52044;DHT22;38053;53.100;6.078;2022-12-20T13:19:37;10.30;99.90
52044;DHT22;38053;53.100;6.078;2022-12-20T13:22:18;10.20;99.90
52044;DHT22;38053;53.100;6.078;2022-12-20T13:24:58;10.30;99.90
52044;DHT22;38053;53.100;6.078;2022-12-20T13:30:44;10.30;99.90
52044;DHT22;38053;53.100;6.078;2022-12-20T13:38:01;10.30;99.90
52044;DHT22;38053;53.100;6.078;2022-12-20T13:40:42;10.40;99.90
52044;DHT22;38053;53.100;6.078;2022-12-20T13:45:54;10.40;99.90
52044;DHT22;38053;53.100;6.078;2022-12-20T13:48:38;10.40;99.90
52044;DHT22;38053;53.100;6.078;2022-12-20T13:51:06;10.40;99.90
52044;DHT22;38053;53.100;6.078;2022-12-20T13:53:33;10.40;99.90
52044;DHT22;38053;53.100;6.078;2022-12-20T13:56:30;10.40;99.90
52044;DHT22;38053;53.100;6.078;2022-12-20T13:59:04;10.40;99.90
52044;DHT22;38053;53.100;6.078;2022-12-20T14:01:30;10.40;99.90
52044;DHT22;38053;53.100;6.078;2022-12-20T14:03:57;10.40;99.90
52044;DHT22;38053;53.100;6.078;2022-12-20T14:06:24;10.40;99.90
52044;DHT22;38053;53.100;6.078;2022-12-20T14:08:51;10.40;99.90
52044;DHT22;38053;53.100;6.078;2022-12-20T14:11:19;10.40;99.90
52044;DHT22;38053;53.100;6.078;2022-12-20T14:13:56;10.50;99.90
52044;DHT22;38053;53.100;6.078;2022-12-20T14:16:25;10.40;99.90
52044;DHT22;38053;53.100;6.078;2022-12-20T14:19:03;10.40;99.90
52044;DHT22;38053;53.100;6.078;2022-12-20T14:21:30;10.40;99.90
52044;DHT22;38053;53.100;6.078;2022-12-20T14:23:59;10.40;99.90
52044;DHT22;38053;53.100;6.078;2022-12-20T14:26:32;10.40;99.90
52044;DHT22;38053;53.100;6.078;2022-12-20T14:29:00;10.40;99.90
52044;DHT22;38053;53.100;6.078;2022-12-20T14:34:03;10.30;99.90
52044;DHT22;38053;53.100;6.078;2022-12-20T14:36:29;10.30;99.90
52044;DHT22;38053;53.100;6.078;2022-12-20T14:38:56;10.30;99.90
52044;DHT22;38053;53.100;6.078;2022-12-20T14:41:37;10.30;99.90
52044;DHT22;38053;53.100;6.078;2022-12-20T14:44:14;10.30;99.90
52044;DHT22;38053;53.100;6.078;2022-12-20T14:46:49;10.30;99.90
52044;DHT22;38053;53.100;6.078;2022-12-20T14:51:50;10.30;99.90
52044;DHT22;38053;53.100;6.078;2022-12-20T14:54:26;10.20;99.90
52044;DHT22;38053;53.100;6.078;2022-12-20T14:56:53;10.20;99.90
52044;DHT22;38053;53.100;6.078;2022-12-20T14:59:28;10.20;99.90
52044;DHT22;38053;53.100;6.078;2022-12-20T15:01:54;10.20;99.90
52044;DHT22;38053;53.100;6.078;2022-12-20T15:06:55;10.20;99.90
52044;DHT22;38053;53.100;6.078;2022-12-20T15:09:21;10.20;99.90
52044;DHT22;38053;53.100;6.078;2022-12-20T15:11:47;10.20;99.90
52044;DHT22;38053;53.100;6.078;2022-12-20T15:14:35;10.20;99.90
52044;DHT22;38053;53.100;6.078;2022-12-20T15:17:12;10.20;99.90
52044;DHT22;38053;53.100;6.078;2022-12-20T15:19:42;10.20;99.90
52044;DHT22;38053;53.100;6.078;2022-12-20T15:22:16;10.10;99.90
52044;DHT22;38053;53.100;6.078;2022-12-20T15:24:43;10.10;99.90
52044;DHT22;38053;53.100;6.078;2022-12-20T15:27:13;10.10;99.90
52044;DHT22;38053;53.100;6.078;2022-12-20T15:29:39;10.10;99.90
52044;DHT22;38053;53.100;6.078;2022-12-20T15:32:21;10.10;99.90
52044;DHT22;38053;53.100;6.078;2022-12-20T15:34:48;10.10;99.90
52044;DHT22;38053;53.100;6.078;2022-12-20T15:37:15;10.00;99.90
52044;DHT22;38053;53.100;6.078;2022-12-20T15:39:41;10.00;99.90
52044;DHT22;38053;53.100;6.078;2022-12-20T15:42:10;10.00;99.90
52044;DHT22;38053;53.100;6.078;2022-12-20T15:44:38;10.00;99.90
52044;DHT22;38053;53.100;6.078;2022-12-20T15:47:03;10.00;99.90
52044;DHT22;38053;53.100;6.078;2022-12-20T15:49:30;9.90;99.90
52044;DHT22;38053;53.100;6.078;2022-12-20T15:51:57;9.90;99.90
52044;DHT22;38053;53.100;6.078;2022-12-20T15:54:34;9.90;99.90
52044;DHT22;38053;53.100;6.078;2022-12-20T15:57:03;9.90;99.90
52044;DHT22;38053;53.100;6.078;2022-12-20T15:59:32;9.90;99.90
52044;DHT22;38053;53.100;6.078;2022-12-20T16:01:58;9.90;99.90
52044;DHT22;38053;53.100;6.078;2022-12-20T16:04:23;9.90;99.90
52044;DHT22;38053;53.100;6.078;2022-12-20T16:06:50;9.80;99.90
52044;DHT22;38053;53.100;6.078;2022-12-20T16:09:18;9.80;99.90
52044;DHT22;38053;53.100;6.078;2022-12-20T16:11:44;9.80;99.90
52044;DHT22;38053;53.100;6.078;2022-12-20T16:14:18;9.80;99.90
52044;DHT22;38053;53.100;6.078;2022-12-20T16:16:45;9.80;99.90
52044;DHT22;38053;53.100;6.078;2022-12-20T16:19:13;9.80;99.90
52044;DHT22;38053;53.100;6.078;2022-12-20T16:21:49;9.70;99.90
52044;DHT22;38053;53.100;6.078;2022-12-20T16:24:17;9.80;99.90
52044;DHT22;38053;53.100;6.078;2022-12-20T16:26:43;9.70;99.90
52044;DHT22;38053;53.100;6.078;2022-12-20T16:29:10;9.70;99.90
52044;DHT22;38053;53.100;6.078;2022-12-20T16:31:38;9.70;99.90
52044;DHT22;38053;53.100;6.078;2022-12-20T16:34:15;9.70;99.90
52044;DHT22;38053;53.100;6.078;2022-12-20T16:36:42;9.70;99.90
52044;DHT22;38053;53.100;6.078;2022-12-20T16:39:08;9.60;99.90
52044;DHT22;38053;53.100;6.078;2022-12-20T16:41:38;9.70;99.90
52044;DHT22;38053;53.100;6.078;2022-12-20T16:44:05;9.70;99.90
52044;DHT22;38053;53.100;6.078;2022-12-20T16:46:32;9.70;99.90
52044;DHT22;38053;53.100;6.078;2022-12-20T16:49:00;9.60;99.90
52044;DHT22;38053;53.100;6.078;2022-12-20T16:51:34;9.60;99.90
52044;DHT22;38053;53.100;6.078;2022-12-20T16:54:04;9.60;99.90
52044;DHT22;38053;53.100;6.078;2022-12-20T16:56:31;9.60;99.90
52044;DHT22;38053;53.100;6.078;2022-12-20T16:58:57;9.60;99.90
52044;DHT22;38053;53.100;6.078;2022-12-20T17:01:31;9.60;99.90
52044;DHT22;38053;53.100;6.078;2022-12-20T17:03:57;9.60;99.90
52044;DHT22;38053;53.100;6.078;2022-12-20T17:06:23;9.60;99.90
52044;DHT22;38053;53.100;6.078;2022-12-20T17:08:49;9.60;99.90
52044;DHT22;38053;53.100;6.078;2022-12-20T17:11:18;9.60;99.90
52044;DHT22;38053;53.100;6.078;2022-12-20T17:13:46;9.60;99.90
52044;DHT22;38053;53.100;6.078;2022-12-20T17:16:13;9.50;99.90
52044;DHT22;38053;53.100;6.078;2022-12-20T17:18:40;9.50;99.90
52044;DHT22;38053;53.100;6.078;2022-12-20T17:23:45;9.50;99.90
52044;DHT22;38053;53.100;6.078;2022-12-20T17:26:14;9.50;99.90
52044;DHT22;38053;53.100;6.078;2022-12-20T17:28:40;9.50;99.90
52044;DHT22;38053;53.100;6.078;2022-12-20T17:33:51;9.50;99.90
52044;DHT22;38053;53.100;6.078;2022-12-20T17:36:17;9.50;99.90
52044;DHT22;38053;53.100;6.078;2022-12-20T17:38:43;9.50;99.90
52044;DHT22;38053;53.100;6.078;2022-12-20T17:41:24;9.50;99.90
52044;DHT22;38053;53.100;6.078;2022-12-20T17:43:51;9.50;99.90
52044;DHT22;38053;53.100;6.078;2022-12-20T17:46:17;9.50;99.90
52044;DHT22;38053;53.100;6.078;2022-12-20T17:48:43;9.50;99.90